createdAt,value
2022-08-22T00:02:52.478Z,0.00
2022-08-22T00:03:18.506Z,0.00
2022-08-22T00:03:34.109Z,0.00
2022-08-22T00:03:58.432Z,0.00
2022-08-22T00:04:34.392Z,0.00
2022-08-22T00:05:02.633Z,0.00
2022-08-22T00:05:34.018Z,0.00
2022-08-22T00:06:06.382Z,0.00
2022-08-22T00:06:34.011Z,0.00
2022-08-22T00:06:54.416Z,0.00
2022-08-22T00:07:27.100Z,0.00
2022-08-22T00:07:58.596Z,0.00
2022-08-22T00:08:30.401Z,0.00
2022-08-22T00:09:02.399Z,0.00
2022-08-22T00:09:34.559Z,0.00
2022-08-22T00:10:06.601Z,0.00
2022-08-22T00:10:34.073Z,0.00
2022-08-22T00:10:55.257Z,0.00
2022-08-22T00:11:26.373Z,0.00
2022-08-22T00:11:59.185Z,0.00
2022-08-22T00:12:30.475Z,0.00
2022-08-22T00:13:02.471Z,0.00
2022-08-22T00:13:35.540Z,0.00
2022-08-22T00:14:06.359Z,0.00
2022-08-22T00:14:34.072Z,0.00
2022-08-22T00:14:54.491Z,0.00
2022-08-22T00:15:43.530Z,0.00
2022-08-22T00:15:59.149Z,0.00
2022-08-22T00:16:30.357Z,0.00
2022-08-22T00:17:02.546Z,0.00
2022-08-22T00:17:34.028Z,0.00
2022-08-22T00:18:06.348Z,0.00
2022-08-22T00:18:34.044Z,0.00
2022-08-22T00:18:54.381Z,0.00
2022-08-22T00:19:27.979Z,0.00
2022-08-22T00:19:58.378Z,0.00
2022-08-22T00:20:32.525Z,0.00
2022-08-22T00:21:02.482Z,0.00
2022-08-22T00:21:34.056Z,0.00
2022-08-22T00:22:06.507Z,0.00
2022-08-22T00:22:33.983Z,0.00
2022-08-22T00:22:55.047Z,0.00
2022-08-22T00:23:26.397Z,0.00
2022-08-22T00:24:15.178Z,0.00
2022-08-22T00:24:34.888Z,0.00
2022-08-22T00:25:02.578Z,0.00
2022-08-22T00:25:35.063Z,0.00
2022-08-22T00:26:22.463Z,0.00
2022-08-22T00:26:45.129Z,0.00
2022-08-22T00:27:10.441Z,0.00
2022-08-22T00:27:35.818Z,0.00
2022-08-22T00:27:58.519Z,0.00
2022-08-22T00:28:30.448Z,0.00
2022-08-22T00:29:03.056Z,0.00
2022-08-22T00:29:35.038Z,0.00
2022-08-22T00:30:07.528Z,0.00
2022-08-22T00:30:34.049Z,0.00
2022-08-22T00:30:54.509Z,0.00
2022-08-22T00:31:27.363Z,0.00
2022-08-22T00:31:58.637Z,0.00
2022-08-22T00:32:31.452Z,0.00
2022-08-22T00:33:02.735Z,0.00
2022-08-22T00:33:34.128Z,0.00
2022-08-22T00:34:08.036Z,0.00
2022-08-22T00:34:34.065Z,0.00
2022-08-22T00:34:54.373Z,0.00
2022-08-22T00:35:27.279Z,0.00
2022-08-22T00:35:58.425Z,0.00
2022-08-22T00:36:32.886Z,0.00
2022-08-22T00:37:02.659Z,0.00
2022-08-22T00:37:36.002Z,0.00
2022-08-22T00:38:06.367Z,0.00
2022-08-22T00:38:36.114Z,0.00
2022-08-22T00:38:55.265Z,0.00
2022-08-22T00:39:26.347Z,0.00
2022-08-22T00:39:58.344Z,0.00
2022-08-22T00:40:30.452Z,0.00
2022-08-22T00:41:02.502Z,0.00
2022-08-22T00:41:35.897Z,0.00
2022-08-22T00:42:06.378Z,0.00
2022-08-22T00:42:34.950Z,0.00
2022-08-22T00:42:54.375Z,0.00
2022-08-22T00:43:27.014Z,0.00
2022-08-22T00:43:58.372Z,0.00
2022-08-22T00:44:31.270Z,0.00
2022-08-22T00:45:02.507Z,0.00
2022-08-22T00:45:37.121Z,0.00
2022-08-22T00:46:06.469Z,0.00
2022-08-22T00:46:34.061Z,0.00
2022-08-22T00:46:55.339Z,0.00
2022-08-22T00:47:26.339Z,0.00
2022-08-22T00:48:15.949Z,0.00
2022-08-22T00:48:46.538Z,0.00
2022-08-22T00:49:19.038Z,0.00
2022-08-22T00:49:50.559Z,0.00
2022-08-22T00:50:23.364Z,0.00
2022-08-22T00:50:40.233Z,0.00
2022-08-22T00:51:10.439Z,0.00
2022-08-22T00:51:34.844Z,0.00
2022-08-22T00:51:58.367Z,0.00
2022-08-22T00:52:31.166Z,0.00
2022-08-22T00:53:02.491Z,0.00
2022-08-22T00:53:34.767Z,0.00
2022-08-22T00:54:06.792Z,0.00
2022-08-22T00:54:34.024Z,0.00
2022-08-22T00:54:55.199Z,0.00
2022-08-22T00:55:26.582Z,0.00
2022-08-22T00:55:59.039Z,0.00
2022-08-22T00:56:30.333Z,0.00
2022-08-22T00:57:03.389Z,0.00
2022-08-22T00:57:35.000Z,0.00
2022-08-22T00:58:06.458Z,0.00
2022-08-22T00:58:34.744Z,0.00
2022-08-22T00:58:54.343Z,0.00
2022-08-22T00:59:26.395Z,0.00
2022-08-22T00:59:59.037Z,0.00
2022-08-22T01:00:30.699Z,0.00
2022-08-22T01:01:02.433Z,0.00
2022-08-22T01:01:36.652Z,0.00
2022-08-22T01:02:06.450Z,0.00
2022-08-22T01:02:34.084Z,0.00
2022-08-22T01:02:54.452Z,0.00
2022-08-22T01:03:27.045Z,0.00
2022-08-22T01:03:58.627Z,0.00
2022-08-22T01:04:31.144Z,0.00
2022-08-22T01:05:19.621Z,0.00
2022-08-22T01:05:52.099Z,0.00
2022-08-22T01:06:22.340Z,0.00
2022-08-22T01:06:39.479Z,0.00
2022-08-22T01:07:10.489Z,0.00
2022-08-22T01:07:38.102Z,0.00
2022-08-22T01:08:00.053Z,0.00
2022-08-22T01:08:30.380Z,0.00
2022-08-22T01:09:02.486Z,0.00
2022-08-22T01:09:36.407Z,0.00
2022-08-22T01:10:07.021Z,0.00
2022-08-22T01:10:33.999Z,0.00
2022-08-22T01:10:54.456Z,0.00
2022-08-22T01:11:27.106Z,0.00
2022-08-22T01:11:58.417Z,0.00
2022-08-22T01:12:30.332Z,0.00
2022-08-22T01:13:02.382Z,0.00
2022-08-22T01:13:35.300Z,0.00
2022-08-22T01:14:06.428Z,0.00
2022-08-22T01:14:35.213Z,0.00
2022-08-22T01:14:56.001Z,0.00
2022-08-22T01:15:26.485Z,0.00
2022-08-22T01:15:59.169Z,0.00
2022-08-22T01:16:30.403Z,0.00
2022-08-22T01:17:20.023Z,0.00
2022-08-22T01:17:50.314Z,0.00
2022-08-22T01:18:23.123Z,0.00
2022-08-22T01:18:40.292Z,0.00
2022-08-22T01:19:10.515Z,0.00
2022-08-22T01:19:34.222Z,0.00
2022-08-22T01:19:58.373Z,0.00
2022-08-22T01:20:31.290Z,0.00
2022-08-22T01:21:02.491Z,0.00
2022-08-22T01:21:35.897Z,0.00
2022-08-22T01:22:06.377Z,0.00
2022-08-22T01:22:34.154Z,0.00
2022-08-22T01:22:54.342Z,0.00
2022-08-22T01:23:26.439Z,0.00
2022-08-22T01:23:59.743Z,0.00
2022-08-22T01:24:30.400Z,0.00
2022-08-22T01:25:02.555Z,0.00
2022-08-22T01:25:34.159Z,0.00
2022-08-22T01:26:06.520Z,0.00
2022-08-22T01:26:34.019Z,0.00
2022-08-22T01:26:54.318Z,0.00
2022-08-22T01:27:26.999Z,0.00
2022-08-22T01:27:59.539Z,0.00
2022-08-22T01:28:33.084Z,0.00
2022-08-22T01:29:03.225Z,0.00
2022-08-22T01:29:34.088Z,0.00
2022-08-22T01:30:07.389Z,0.00
2022-08-22T01:30:34.135Z,0.00
2022-08-22T01:30:54.592Z,0.00
2022-08-22T01:31:30.061Z,0.00
2022-08-22T01:31:58.363Z,0.00
2022-08-22T01:32:30.352Z,0.00
2022-08-22T01:33:03.074Z,0.00
2022-08-22T01:33:36.101Z,0.00
2022-08-22T01:34:06.334Z,0.00
2022-08-22T01:34:35.001Z,0.00
2022-08-22T01:34:55.263Z,0.00
2022-08-22T01:35:28.166Z,0.00
2022-08-22T01:35:58.605Z,0.00
2022-08-22T01:36:30.414Z,0.00
2022-08-22T01:37:02.351Z,0.00
2022-08-22T01:37:34.124Z,0.00
2022-08-22T01:38:06.429Z,0.00
2022-08-22T01:38:35.093Z,0.00
2022-08-22T01:38:56.047Z,0.00
2022-08-22T01:39:26.308Z,0.00
2022-08-22T01:39:58.479Z,0.00
2022-08-22T01:40:30.589Z,0.00
2022-08-22T01:41:03.242Z,0.00
2022-08-22T01:41:34.075Z,0.00
2022-08-22T01:42:06.343Z,0.00
2022-08-22T01:42:35.737Z,0.00
2022-08-22T01:42:54.444Z,0.00
2022-08-22T01:43:43.845Z,0.00
2022-08-22T01:44:14.380Z,0.00
2022-08-22T01:44:34.020Z,0.00
2022-08-22T01:45:03.452Z,0.00
2022-08-22T01:45:33.999Z,0.00
2022-08-22T01:46:07.399Z,0.00
2022-08-22T01:46:34.053Z,0.00
2022-08-22T01:46:55.213Z,0.00
2022-08-22T01:47:27.043Z,0.00
2022-08-22T01:47:58.671Z,0.00
2022-08-22T01:48:31.327Z,0.00
2022-08-22T01:49:02.361Z,0.00
2022-08-22T01:49:34.074Z,0.00
2022-08-22T01:50:06.565Z,0.00
2022-08-22T01:50:34.660Z,0.00
2022-08-22T01:50:55.161Z,0.00
2022-08-22T01:51:26.305Z,0.00
2022-08-22T01:52:00.374Z,0.00
2022-08-22T01:52:31.464Z,0.00
2022-08-22T01:53:03.025Z,0.00
2022-08-22T01:53:34.153Z,0.00
2022-08-22T01:54:06.384Z,0.00
2022-08-22T01:54:35.117Z,0.00
2022-08-22T01:54:54.419Z,0.00
2022-08-22T01:55:26.439Z,0.00
2022-08-22T01:56:01.456Z,0.00
2022-08-22T01:56:30.374Z,0.00
2022-08-22T01:57:02.469Z,0.00
2022-08-22T01:57:34.805Z,0.00
2022-08-22T01:58:07.318Z,0.00
2022-08-22T01:58:34.039Z,0.00
2022-08-22T01:58:55.895Z,0.00
2022-08-22T01:59:33.742Z,0.00
2022-08-22T02:00:00.499Z,0.00
2022-08-22T02:00:34.766Z,0.00
2022-08-22T02:01:03.249Z,0.00
2022-08-22T02:01:34.997Z,0.00
2022-08-22T02:02:06.912Z,0.00
2022-08-22T02:02:34.931Z,0.00
2022-08-22T02:02:54.302Z,0.00
2022-08-22T02:03:26.356Z,0.00
2022-08-22T02:03:58.449Z,0.00
2022-08-22T02:04:31.536Z,0.00
2022-08-22T02:05:02.523Z,0.00
2022-08-22T02:05:36.208Z,0.00
2022-08-22T02:06:06.406Z,0.00
2022-08-22T02:06:34.278Z,0.00
2022-08-22T02:06:55.236Z,0.00
2022-08-22T02:07:31.821Z,0.00
2022-08-22T02:07:58.590Z,0.00
2022-08-22T02:08:32.070Z,0.00
2022-08-22T02:09:02.370Z,0.00
2022-08-22T02:09:36.609Z,0.00
2022-08-22T02:10:06.449Z,0.00
2022-08-22T02:10:35.907Z,0.00
2022-08-22T02:10:55.238Z,0.00
2022-08-22T02:11:26.309Z,0.00
2022-08-22T02:11:58.386Z,0.00
2022-08-22T02:12:30.299Z,0.00
2022-08-22T02:13:02.464Z,0.00
2022-08-22T02:13:35.791Z,0.00
2022-08-22T02:14:06.394Z,0.00
2022-08-22T02:14:34.191Z,0.00
2022-08-22T02:14:54.340Z,0.00
2022-08-22T02:15:27.468Z,0.00
2022-08-22T02:15:58.450Z,0.00
2022-08-22T02:16:30.964Z,0.00
2022-08-22T02:17:02.334Z,0.00
2022-08-22T02:17:35.608Z,0.00
2022-08-22T02:18:06.700Z,0.00
2022-08-22T02:18:35.218Z,0.00
2022-08-22T02:18:54.998Z,0.00
2022-08-22T02:19:26.325Z,0.00
2022-08-22T02:19:58.333Z,0.00
2022-08-22T02:20:31.591Z,0.00
2022-08-22T02:21:02.399Z,0.00
2022-08-22T02:21:34.006Z,0.00
2022-08-22T02:22:23.209Z,0.00
2022-08-22T02:22:44.664Z,0.00
2022-08-22T02:23:10.407Z,0.00
2022-08-22T02:23:35.047Z,0.00
2022-08-22T02:23:58.333Z,0.00
2022-08-22T02:24:35.006Z,0.00
2022-08-22T02:25:02.560Z,0.00
2022-08-22T02:25:34.537Z,0.00
2022-08-22T02:26:06.305Z,0.00
2022-08-22T02:26:36.001Z,0.00
2022-08-22T02:26:54.427Z,0.00
2022-08-22T02:27:31.420Z,0.00
2022-08-22T02:27:58.614Z,0.00
2022-08-22T02:28:30.289Z,0.00
2022-08-22T02:29:02.361Z,0.00
2022-08-22T02:29:34.098Z,0.00
2022-08-22T02:30:06.546Z,0.00
2022-08-22T02:30:34.648Z,0.00
2022-08-22T02:30:56.986Z,0.00
2022-08-22T02:31:26.280Z,0.00
2022-08-22T02:31:59.002Z,0.00
2022-08-22T02:32:30.389Z,0.00
2022-08-22T02:33:02.339Z,0.00
2022-08-22T02:33:34.966Z,0.00
2022-08-22T02:34:06.625Z,0.00
2022-08-22T02:34:34.699Z,0.00
2022-08-22T02:34:54.388Z,0.00
2022-08-22T02:35:26.475Z,0.00
2022-08-22T02:35:59.158Z,0.00
2022-08-22T02:36:30.368Z,0.00
2022-08-22T02:37:02.437Z,0.00
2022-08-22T02:37:34.002Z,0.00
2022-08-22T02:38:07.234Z,0.00
2022-08-22T02:38:41.196Z,0.00
2022-08-22T02:39:11.304Z,0.00
2022-08-22T02:39:34.113Z,0.00
2022-08-22T02:39:59.229Z,0.00
2022-08-22T02:40:30.421Z,0.00
2022-08-22T02:41:03.429Z,0.00
2022-08-22T02:41:35.543Z,0.00
2022-08-22T02:42:06.361Z,0.00
2022-08-22T02:42:34.911Z,0.00
2022-08-22T02:42:54.355Z,0.00
2022-08-22T02:43:27.078Z,0.00
2022-08-22T02:43:58.449Z,0.00
2022-08-22T02:44:31.896Z,0.00
2022-08-22T02:45:02.606Z,0.00
2022-08-22T02:45:37.444Z,0.00
2022-08-22T02:46:07.130Z,0.00
2022-08-22T02:46:34.123Z,0.00
2022-08-22T02:46:55.190Z,0.00
2022-08-22T02:47:26.337Z,0.00
2022-08-22T02:47:59.240Z,0.00
2022-08-22T02:48:30.458Z,0.00
2022-08-22T02:49:02.983Z,0.00
2022-08-22T02:49:34.065Z,0.00
2022-08-22T02:50:06.443Z,0.00
2022-08-22T02:50:34.104Z,0.00
2022-08-22T02:50:54.482Z,0.00
2022-08-22T02:51:27.071Z,0.00
2022-08-22T02:51:58.301Z,0.00
2022-08-22T02:52:31.154Z,0.00
2022-08-22T02:53:02.435Z,0.00
2022-08-22T02:53:35.805Z,0.00
2022-08-22T02:54:06.316Z,0.00
2022-08-22T02:54:35.639Z,0.00
2022-08-22T02:54:55.226Z,0.00
2022-08-22T02:55:26.467Z,0.00
2022-08-22T02:55:58.456Z,0.00
2022-08-22T02:56:35.637Z,0.00
2022-08-22T02:57:02.274Z,0.00
2022-08-22T02:57:36.167Z,0.00
2022-08-22T02:58:22.977Z,0.00
2022-08-22T02:58:40.110Z,0.00
2022-08-22T02:59:10.348Z,0.00
2022-08-22T02:59:33.998Z,0.00
2022-08-22T02:59:58.523Z,0.00
2022-08-22T03:00:33.166Z,0.00
2022-08-22T03:01:02.504Z,0.00
2022-08-22T03:01:35.778Z,0.00
2022-08-22T03:02:07.371Z,0.00
2022-08-22T03:02:35.317Z,0.00
2022-08-22T03:02:54.978Z,0.00
2022-08-22T03:03:26.283Z,0.00
2022-08-22T03:03:58.270Z,0.00
2022-08-22T03:04:31.454Z,0.00
2022-08-22T03:05:02.718Z,0.00
2022-08-22T03:05:34.790Z,0.00
2022-08-22T03:06:06.276Z,0.00
2022-08-22T03:06:34.039Z,0.00
2022-08-22T03:06:54.381Z,0.00
2022-08-22T03:07:27.054Z,0.00
2022-08-22T03:07:58.523Z,0.00
2022-08-22T03:08:31.102Z,0.00
2022-08-22T03:09:02.332Z,0.00
2022-08-22T03:09:37.620Z,0.00
2022-08-22T03:10:06.570Z,0.00
2022-08-22T03:10:34.838Z,0.00
2022-08-22T03:10:54.361Z,0.00
2022-08-22T03:11:26.273Z,0.00
2022-08-22T03:11:58.975Z,0.00
2022-08-22T03:12:34.074Z,0.00
2022-08-22T03:13:03.090Z,0.00
2022-08-22T03:13:34.933Z,0.00
2022-08-22T03:14:07.015Z,0.00
2022-08-22T03:14:35.121Z,0.00
2022-08-22T03:14:54.409Z,0.00
2022-08-22T03:15:26.464Z,0.00
2022-08-22T03:15:58.384Z,0.00
2022-08-22T03:16:30.342Z,0.00
2022-08-22T03:17:02.397Z,0.00
2022-08-22T03:17:34.076Z,0.00
2022-08-22T03:18:06.312Z,0.00
2022-08-22T03:18:35.317Z,0.00
2022-08-22T03:18:55.037Z,0.00
2022-08-22T03:19:27.017Z,0.00
2022-08-22T03:19:58.288Z,0.00
2022-08-22T03:20:30.423Z,0.00
2022-08-22T03:21:02.333Z,0.00
2022-08-22T03:21:34.904Z,0.00
2022-08-22T03:22:07.525Z,0.00
2022-08-22T03:22:36.621Z,0.00
2022-08-22T03:22:55.065Z,0.00
2022-08-22T03:23:26.309Z,0.00
2022-08-22T03:23:58.388Z,0.00
2022-08-22T03:24:30.333Z,0.00
2022-08-22T03:25:02.448Z,0.00
2022-08-22T03:25:35.312Z,0.00
2022-08-22T03:26:07.487Z,0.00
2022-08-22T03:26:34.163Z,0.00
2022-08-22T03:26:54.279Z,0.00
2022-08-22T03:27:32.065Z,0.00
2022-08-22T03:27:58.350Z,0.00
2022-08-22T03:28:31.025Z,0.00
2022-08-22T03:29:02.444Z,0.00
2022-08-22T03:29:34.027Z,0.00
2022-08-22T03:30:06.463Z,0.00
2022-08-22T03:30:34.046Z,0.00
2022-08-22T03:30:55.410Z,0.00
2022-08-22T03:31:26.434Z,0.00
2022-08-22T03:31:59.199Z,0.00
2022-08-22T03:32:31.292Z,0.00
2022-08-22T03:33:02.325Z,0.00
2022-08-22T03:33:34.145Z,0.00
2022-08-22T03:34:06.379Z,0.00
2022-08-22T03:34:35.101Z,0.00
2022-08-22T03:34:54.264Z,0.00
2022-08-22T03:35:26.391Z,0.00
2022-08-22T03:35:58.431Z,0.00
2022-08-22T03:36:30.426Z,0.00
2022-08-22T03:37:02.259Z,0.00
2022-08-22T03:37:36.287Z,0.00
2022-08-22T03:38:23.204Z,0.00
2022-08-22T03:38:40.447Z,0.00
2022-08-22T03:39:17.291Z,0.00
2022-08-22T03:39:36.421Z,0.00
2022-08-22T03:39:58.991Z,0.00
2022-08-22T03:40:31.591Z,0.00
2022-08-22T03:41:19.980Z,0.00
2022-08-22T03:41:50.294Z,0.00
2022-08-22T03:42:22.262Z,0.00
2022-08-22T03:42:40.869Z,0.00
2022-08-22T03:43:10.349Z,0.00
2022-08-22T03:43:35.427Z,0.00
2022-08-22T03:43:58.264Z,0.00
2022-08-22T03:44:30.257Z,0.00
2022-08-22T03:45:02.543Z,0.00
2022-08-22T03:45:34.032Z,0.00
2022-08-22T03:46:06.303Z,0.00
2022-08-22T03:46:34.013Z,0.00
2022-08-22T03:46:54.285Z,0.00
2022-08-22T03:47:28.842Z,0.00
2022-08-22T03:47:58.593Z,0.00
2022-08-22T03:48:30.242Z,0.00
2022-08-22T03:49:02.296Z,0.00
2022-08-22T03:49:34.078Z,0.00
2022-08-22T03:50:06.571Z,0.00
2022-08-22T03:50:34.027Z,0.00
2022-08-22T03:50:56.205Z,0.00
2022-08-22T03:51:26.263Z,0.00
2022-08-22T03:51:58.416Z,0.00
2022-08-22T03:52:30.365Z,0.00
2022-08-22T03:53:04.342Z,0.00
2022-08-22T03:53:34.020Z,0.00
2022-08-22T03:54:06.257Z,0.00
2022-08-22T03:54:35.733Z,0.00
2022-08-22T03:54:54.316Z,0.00
2022-08-22T03:55:26.425Z,0.00
2022-08-22T03:55:58.318Z,0.00
2022-08-22T03:56:30.321Z,0.00
2022-08-22T03:57:02.362Z,0.00
2022-08-22T03:57:36.636Z,0.00
2022-08-22T03:58:06.257Z,0.00
2022-08-22T03:58:35.008Z,0.00
2022-08-22T03:58:54.284Z,0.00
2022-08-22T03:59:26.350Z,0.00
2022-08-22T03:59:58.404Z,0.00
2022-08-22T04:00:30.523Z,0.00
2022-08-22T04:01:02.306Z,0.00
2022-08-22T04:01:36.859Z,0.00
2022-08-22T04:02:31.497Z,0.00
2022-08-22T04:02:54.957Z,0.00
2022-08-22T04:03:28.125Z,0.00
2022-08-22T04:03:59.041Z,0.00
2022-08-22T04:04:30.390Z,0.00
2022-08-22T04:05:03.324Z,0.00
2022-08-22T04:05:36.622Z,0.00
2022-08-22T04:06:07.858Z,0.00
2022-08-22T04:06:34.608Z,0.00
2022-08-22T04:06:56.302Z,0.00
2022-08-22T04:07:31.758Z,0.00
2022-08-22T04:07:59.426Z,0.00
2022-08-22T04:08:31.620Z,0.00
2022-08-22T04:09:02.342Z,0.00
2022-08-22T04:09:34.717Z,0.00
2022-08-22T04:10:06.407Z,0.00
2022-08-22T04:10:34.017Z,0.00
2022-08-22T04:10:54.398Z,0.00
2022-08-22T04:11:26.398Z,0.00
2022-08-22T04:11:58.944Z,0.00
2022-08-22T04:12:33.372Z,0.00
2022-08-22T04:13:03.069Z,0.00
2022-08-22T04:13:35.166Z,0.00
2022-08-22T04:14:06.350Z,0.00
2022-08-22T04:14:34.208Z,0.00
2022-08-22T04:14:54.242Z,0.00
2022-08-22T04:15:28.246Z,0.00
2022-08-22T04:15:58.365Z,0.00
2022-08-22T04:16:30.341Z,0.00
2022-08-22T04:17:02.249Z,0.00
2022-08-22T04:17:34.081Z,0.00
2022-08-22T04:18:07.300Z,0.00
2022-08-22T04:18:34.169Z,0.00
2022-08-22T04:18:55.305Z,0.00
2022-08-22T04:19:34.106Z,0.00
2022-08-22T04:19:58.278Z,0.00
2022-08-22T04:20:30.481Z,0.00
2022-08-22T04:21:02.381Z,0.00
2022-08-22T04:21:35.116Z,0.00
2022-08-22T04:22:06.327Z,0.00
2022-08-22T04:22:36.427Z,0.00
2022-08-22T04:23:10.389Z,0.00
2022-08-22T04:23:34.736Z,0.00
2022-08-22T04:23:59.035Z,0.00
2022-08-22T04:24:30.312Z,0.00
2022-08-22T04:25:07.097Z,0.00
2022-08-22T04:25:34.019Z,0.00
2022-08-22T04:26:10.776Z,0.00
2022-08-22T04:26:34.018Z,0.00
2022-08-22T04:26:54.342Z,0.36
2022-08-22T04:27:26.412Z,0.00
2022-08-22T04:27:58.559Z,0.00
2022-08-22T04:28:30.290Z,0.00
2022-08-22T04:29:02.270Z,0.00
2022-08-22T04:29:34.439Z,0.36
2022-08-22T04:30:06.502Z,0.00
2022-08-22T04:30:35.082Z,0.36
2022-08-22T04:30:55.231Z,0.85
2022-08-22T04:31:26.314Z,0.85
2022-08-22T04:31:58.949Z,0.36
2022-08-22T04:32:31.313Z,1.22
2022-08-22T04:33:02.399Z,0.85
2022-08-22T04:33:34.354Z,0.36
2022-08-22T04:34:07.408Z,1.22
2022-08-22T04:34:35.807Z,1.22
2022-08-22T04:35:11.252Z,1.71
2022-08-22T04:35:34.408Z,1.71
2022-08-22T04:35:58.468Z,1.71
2022-08-22T04:36:30.390Z,2.08
2022-08-22T04:37:04.045Z,1.71
2022-08-22T04:37:34.096Z,1.22
2022-08-22T04:38:06.365Z,2.08
2022-08-22T04:38:34.271Z,2.57
2022-08-22T04:38:54.449Z,2.94
2022-08-22T04:39:27.133Z,2.94
2022-08-22T04:39:58.434Z,2.57
2022-08-22T04:40:31.464Z,2.57
2022-08-22T04:41:04.597Z,3.43
2022-08-22T04:41:34.677Z,3.43
2022-08-22T04:42:29.140Z,3.43
2022-08-22T04:42:36.933Z,3.79
2022-08-22T04:42:55.118Z,3.43
2022-08-22T04:43:26.567Z,3.43
2022-08-22T04:43:58.399Z,3.79
2022-08-22T04:44:30.378Z,4.28
2022-08-22T04:45:02.627Z,4.28
2022-08-22T04:45:34.228Z,4.77
2022-08-22T04:46:06.369Z,4.28
2022-08-22T04:46:37.001Z,4.28
2022-08-22T04:46:54.310Z,4.77
2022-08-22T04:47:26.368Z,4.28
2022-08-22T04:47:58.560Z,4.28
2022-08-22T04:48:30.369Z,5.63
2022-08-22T04:49:02.486Z,5.63
2022-08-22T04:49:35.298Z,5.63
2022-08-22T04:50:06.654Z,5.63
2022-08-22T04:50:34.269Z,5.99
2022-08-22T04:50:55.898Z,5.99
2022-08-22T04:51:26.316Z,6.48
2022-08-22T04:51:59.215Z,6.48
2022-08-22T04:52:30.412Z,6.48
2022-08-22T04:53:02.359Z,6.85
2022-08-22T04:53:34.117Z,7.70
2022-08-22T04:54:06.373Z,7.34
2022-08-22T04:54:34.186Z,7.70
2022-08-22T04:54:55.321Z,7.70
2022-08-22T04:55:27.149Z,7.70
2022-08-22T04:55:58.295Z,7.34
2022-08-22T04:56:31.114Z,8.56
2022-08-22T04:57:02.588Z,8.19
2022-08-22T04:57:49.848Z,7.70
2022-08-22T04:58:07.021Z,8.19
2022-08-22T04:58:34.085Z,9.05
2022-08-22T04:58:55.390Z,9.54
2022-08-22T04:59:27.323Z,9.54
2022-08-22T04:59:59.181Z,9.05
2022-08-22T05:00:30.525Z,9.05
2022-08-22T05:01:02.378Z,9.54
2022-08-22T05:01:35.052Z,9.91
2022-08-22T05:02:06.700Z,10.39
2022-08-22T05:02:34.094Z,9.91
2022-08-22T05:02:54.304Z,10.77
2022-08-22T05:03:28.119Z,10.39
2022-08-22T05:03:58.460Z,10.39
2022-08-22T05:04:36.130Z,10.77
2022-08-22T05:05:34.353Z,10.77
2022-08-22T05:06:35.035Z,10.77
2022-08-22T05:07:36.097Z,10.77
2022-08-22T05:08:34.942Z,10.77
2022-08-22T05:09:34.964Z,10.77
2022-08-22T05:10:35.024Z,10.77
2022-08-22T05:11:34.268Z,10.77
2022-08-22T05:11:59.110Z,12.97
2022-08-22T05:12:34.198Z,12.97
2022-08-22T05:13:02.419Z,12.48
2022-08-22T05:13:34.853Z,12.48
2022-08-22T05:14:34.115Z,12.97
2022-08-22T05:15:35.247Z,12.97
2022-08-22T05:16:35.265Z,12.97
2022-08-22T05:17:35.816Z,12.97
2022-08-22T05:18:07.118Z,14.31
2022-08-22T05:18:34.433Z,14.68
2022-08-22T05:18:55.014Z,14.31
2022-08-22T05:19:31.679Z,13.82
2022-08-22T05:19:58.450Z,14.31
2022-08-22T05:20:30.454Z,14.68
2022-08-22T05:21:02.385Z,14.31
2022-08-22T05:21:34.170Z,14.68
2022-08-22T05:22:06.400Z,15.17
2022-08-22T05:22:36.849Z,15.53
2022-08-22T05:22:54.427Z,15.53
2022-08-22T05:23:27.085Z,16.02
2022-08-22T05:24:00.234Z,16.88
2022-08-22T05:24:30.365Z,16.88
2022-08-22T05:25:02.594Z,16.88
2022-08-22T05:25:34.147Z,17.73
2022-08-22T05:26:06.390Z,17.73
2022-08-22T05:26:34.655Z,17.73
2022-08-22T05:26:54.881Z,18.11
2022-08-22T05:27:26.383Z,19.08
2022-08-22T05:27:58.511Z,19.08
2022-08-22T05:28:30.329Z,19.45
2022-08-22T05:29:03.319Z,19.45
2022-08-22T05:29:34.108Z,19.45
2022-08-22T05:30:06.470Z,20.31
2022-08-22T05:30:35.848Z,20.80
2022-08-22T05:31:10.430Z,20.80
2022-08-22T05:31:34.162Z,21.65
2022-08-22T05:31:59.994Z,21.16
2022-08-22T05:32:30.328Z,21.16
2022-08-22T05:33:03.369Z,20.80
2022-08-22T05:33:34.150Z,22.02
2022-08-22T05:34:07.138Z,21.65
2022-08-22T05:34:35.105Z,21.65
2022-08-22T05:34:54.308Z,22.02
2022-08-22T05:35:27.316Z,22.51
2022-08-22T05:35:58.448Z,22.51
2022-08-22T05:36:31.011Z,22.51
2022-08-22T05:37:02.310Z,23.36
2022-08-22T05:37:34.878Z,23.36
2022-08-22T05:38:06.444Z,23.36
2022-08-22T05:38:35.247Z,23.36
2022-08-22T05:38:55.999Z,23.85
2022-08-22T05:39:27.866Z,24.22
2022-08-22T05:40:00.608Z,24.71
2022-08-22T05:40:30.486Z,24.71
2022-08-22T05:41:19.106Z,24.71
2022-08-22T05:41:51.235Z,24.71
2022-08-22T05:42:27.178Z,25.56
2022-08-22T05:42:54.470Z,25.94
2022-08-22T05:43:26.379Z,26.42
2022-08-22T05:44:00.246Z,27.28
2022-08-22T05:44:30.316Z,27.28
2022-08-22T05:45:03.407Z,28.14
2022-08-22T05:45:34.187Z,27.65
2022-08-22T05:46:07.928Z,28.63
2022-08-22T05:46:34.124Z,28.14
2022-08-22T05:46:54.289Z,30.34
2022-08-22T05:47:26.436Z,30.70
2022-08-22T05:47:58.522Z,32.05
2022-08-22T05:48:30.313Z,32.42
2022-08-22T05:49:03.311Z,32.90
2022-08-22T05:49:36.618Z,33.39
2022-08-22T05:50:07.504Z,33.39
2022-08-22T05:50:36.150Z,34.25
2022-08-22T05:50:54.394Z,34.25
2022-08-22T05:51:27.007Z,34.25
2022-08-22T05:51:58.422Z,35.48
2022-08-22T05:52:31.007Z,36.33
2022-08-22T05:53:02.309Z,36.82
2022-08-22T05:53:34.201Z,36.82
2022-08-22T05:54:06.437Z,38.17
2022-08-22T05:54:34.632Z,38.17
2022-08-22T05:54:55.116Z,39.02
2022-08-22T05:55:26.404Z,39.88
2022-08-22T05:55:58.564Z,40.24
2022-08-22T05:56:30.400Z,40.73
2022-08-22T05:57:07.377Z,41.59
2022-08-22T05:57:34.112Z,41.96
2022-08-22T05:58:06.368Z,42.94
2022-08-22T05:58:34.192Z,42.45
2022-08-22T05:58:54.381Z,44.65
2022-08-22T05:59:26.944Z,44.16
2022-08-22T05:59:58.303Z,45.02
2022-08-22T06:00:31.458Z,45.51
2022-08-22T06:01:02.439Z,46.73
2022-08-22T06:01:34.190Z,46.36
2022-08-22T06:02:06.451Z,47.71
2022-08-22T06:02:34.088Z,47.71
2022-08-22T06:02:55.067Z,49.42
2022-08-22T06:03:26.403Z,51.14
2022-08-22T06:03:59.023Z,51.99
2022-08-22T06:04:30.320Z,54.19
2022-08-22T06:05:02.532Z,55.90
2022-08-22T06:05:35.021Z,56.76
2022-08-22T06:06:06.285Z,60.19
2022-08-22T06:06:34.460Z,61.17
2022-08-22T06:06:54.283Z,63.24
2022-08-22T06:07:27.899Z,65.94
2022-08-22T06:07:59.579Z,67.65
2022-08-22T06:08:30.310Z,70.71
2022-08-22T06:09:02.295Z,73.28
2022-08-22T06:09:34.645Z,73.65
2022-08-22T06:10:06.539Z,77.19
2022-08-22T06:10:34.779Z,78.05
2022-08-22T06:10:55.269Z,79.76
2022-08-22T06:11:26.354Z,82.33
2022-08-22T06:11:59.430Z,83.19
2022-08-22T06:12:30.299Z,85.88
2022-08-22T06:13:03.292Z,86.73
2022-08-22T06:13:35.516Z,87.59
2022-08-22T06:14:06.389Z,90.65
2022-08-22T06:14:34.179Z,91.02
2022-08-22T06:14:54.289Z,92.73
2022-08-22T06:15:27.210Z,93.58
2022-08-22T06:15:58.350Z,94.07
2022-08-22T06:16:30.991Z,94.93
2022-08-22T06:17:02.285Z,95.79
2022-08-22T06:17:35.500Z,96.27
2022-08-22T06:18:06.400Z,97.99
2022-08-22T06:18:35.436Z,98.85
2022-08-22T06:19:19.523Z,100.56
2022-08-22T06:19:34.494Z,101.05
2022-08-22T06:20:16.230Z,102.76
2022-08-22T06:20:35.728Z,103.13
2022-08-22T06:21:02.361Z,104.48
2022-08-22T06:21:39.440Z,104.10
2022-08-22T06:22:12.411Z,106.19
2022-08-22T06:22:34.280Z,107.04
2022-08-22T06:22:57.120Z,107.53
2022-08-22T06:23:27.174Z,108.88
2022-08-22T06:23:59.359Z,108.39
2022-08-22T06:24:31.075Z,108.39
2022-08-22T06:25:02.622Z,107.90
2022-08-22T06:25:34.270Z,107.53
2022-08-22T06:26:06.285Z,106.68
2022-08-22T06:26:34.110Z,106.19
2022-08-22T06:26:55.054Z,106.19
2022-08-22T06:27:26.413Z,105.33
2022-08-22T06:27:58.562Z,104.96
2022-08-22T06:28:31.223Z,104.10
2022-08-22T06:29:02.290Z,104.10
2022-08-22T06:29:34.411Z,103.61
2022-08-22T06:30:07.667Z,102.76
2022-08-22T06:30:34.154Z,103.13
2022-08-22T06:30:54.375Z,101.90
2022-08-22T06:31:27.052Z,101.41
2022-08-22T06:31:58.419Z,100.56
2022-08-22T06:32:52.883Z,100.19
2022-08-22T06:33:02.292Z,99.34
2022-08-22T06:33:34.260Z,99.34
2022-08-22T06:34:06.522Z,97.99
2022-08-22T06:34:34.678Z,97.50
2022-08-22T06:34:55.006Z,96.27
2022-08-22T06:35:26.450Z,93.58
2022-08-22T06:35:59.095Z,91.51
2022-08-22T06:36:30.437Z,88.82
2022-08-22T06:37:04.750Z,87.10
2022-08-22T06:37:34.115Z,86.24
2022-08-22T06:38:06.443Z,84.53
2022-08-22T06:38:34.195Z,85.02
2022-08-22T06:38:54.351Z,84.04
2022-08-22T06:39:26.354Z,83.68
2022-08-22T06:39:58.393Z,82.33
2022-08-22T06:40:30.489Z,82.82
2022-08-22T06:41:02.412Z,82.33
2022-08-22T06:41:35.221Z,81.97
2022-08-22T06:42:06.597Z,81.97
2022-08-22T06:42:34.181Z,81.97
2022-08-22T06:42:55.040Z,81.97
2022-08-22T06:43:26.311Z,82.33
2022-08-22T06:43:59.119Z,83.68
2022-08-22T06:44:30.398Z,85.02